Thayer, Nebraska
Current Conditions -  °F | °C
As of 9:15 PM on Tuesday 25 Nov 2014 (Local Time) from KJYR Reporting Station
Overcast Overcast  
Wind Chill: 34°   Ceiling: 3900
Heat Index: 41°   Visibility: 10mi
Dew Point: 25°   Wind: 13mph
Humidity: 53%   Direction: 260°W
Pressure: 29.85"   Gusts: 20mph
Location:  40.928°N, 97.4416°W
Report Text: KJYR 260315Z AUTO 26011G17KT 10SM FEW031 BKN039 OVC070 05/M04 A2985 RMK AO2
Loading
Personal Weather Stations






























Interactive Weather Map New forecast layout! Learn more

10-Day Weather Forecast

Advertisements
Track Severe Weather on mobile